Ana Sayfa
METAR-TAF:

METAR-TAF

Havaalanları :

Quakertown Airport

Quakertown, Pensilvanya, Amerika Birleşik Devletleri

Enlem: 40-26-06N, Boylam: 075-22-54W, yükseklik: 160 m

Güncel hava durumu gözlemi

Rapor saat 20:15 UTC de 8 dakika önce yapıldı.
Rüzgar güneybatıdan 14 kt ve 22 kt'a kadar ani rüzgarlar
Sıcaklık 29°C
Nem 45%
Basınç 1007 hPa
Görüş mesafesi: 16.1 km
Açık gökyüzü

METAR: KUKT 202015Z AUTO 23014G22KT 10SM CLR 29/16 A2975 RMK A01

Saat: 16:23 (20:23 UTC)


TAF: eksik

4.000'den fazla havaalanı için hava durumu gözlemleri ve tahminleri (METAR ve TAF raporları).

Kullanılabilir istasyonlar harita üzerinde sarı ve kırmızı noktalarla gösterilir.

İstasyonun adını görmek için fareyi noktanın üzerinde gezdirin.

Sonrasında hava gözlem ve tahminlerini görmek için tıklayın.

Haritayı değiştirmek için: yaklaştırmak için siyah artı işaretli yeşil düğmeye ve uzaklaştırmak için de eksi işaretli düğmeye hızla tıklayın; bitişik haritalar için yeşil okları kullanın.


METAR-TAF: